createdAt,value
2023-02-04T00:00:37.967Z,-2.11
2023-02-04T00:03:25.811Z,-2.15
2023-02-04T00:05:53.973Z,-2.16
2023-02-04T00:08:21.727Z,-2.19
2023-02-04T00:10:49.934Z,-2.17
2023-02-04T00:13:17.337Z,-2.17
2023-02-04T00:15:45.720Z,-2.13
2023-02-04T00:18:13.592Z,-2.17
2023-02-04T00:20:41.642Z,-2.20
2023-02-04T00:23:09.171Z,-2.14
2023-02-04T00:25:37.420Z,-2.17
2023-02-04T00:28:06.447Z,-2.14
2023-02-04T00:30:34.932Z,-2.14
2023-02-04T00:33:03.614Z,-2.11
2023-02-04T00:35:31.672Z,-2.19
2023-02-04T00:37:59.573Z,-2.12
2023-02-04T00:40:27.812Z,-2.20
2023-02-04T00:42:55.610Z,-2.16
2023-02-04T00:45:24.128Z,-2.13
2023-02-04T00:47:51.923Z,-2.15
2023-02-04T00:50:20.029Z,-2.19
2023-02-04T00:52:47.393Z,-2.07
2023-02-04T00:55:17.229Z,-2.12
2023-02-04T00:57:48.790Z,-2.17
2023-02-04T01:00:18.245Z,-2.20
2023-02-04T01:02:46.309Z,-2.15
2023-02-04T01:05:15.114Z,-2.15
2023-02-04T01:07:43.229Z,-2.15
2023-02-04T01:10:12.071Z,-2.15
2023-02-04T01:12:40.025Z,-2.16
2023-02-04T01:15:08.806Z,-2.13
2023-02-04T01:17:36.558Z,-2.11
2023-02-04T01:20:04.916Z,-2.12
2023-02-04T01:22:32.913Z,-2.10
2023-02-04T01:25:00.949Z,-2.11
2023-02-04T01:27:41.762Z,-2.11
2023-02-04T01:30:10.729Z,-2.10
2023-02-04T01:32:38.405Z,-2.09
2023-02-04T01:35:06.883Z,-2.08
2023-02-04T01:37:34.838Z,-2.11
2023-02-04T01:40:03.936Z,-2.09
2023-02-04T01:42:31.697Z,-2.11
2023-02-04T01:44:59.643Z,-2.07
2023-02-04T01:47:27.352Z,-2.02
2023-02-04T01:49:56.165Z,-2.07
2023-02-04T01:52:24.364Z,-2.07
2023-02-04T01:54:53.314Z,-2.04
2023-02-04T01:57:21.146Z,-1.97
2023-02-04T01:59:56.299Z,-2.03
2023-02-04T02:02:44.648Z,-2.08
2023-02-04T02:05:17.455Z,-2.08
2023-02-04T02:07:45.455Z,-2.12
2023-02-04T02:10:14.883Z,-2.04
2023-02-04T02:12:44.753Z,-2.05
2023-02-04T02:15:13.789Z,-2.08
2023-02-04T02:17:41.863Z,-2.09
2023-02-04T02:20:12.614Z,-2.05
2023-02-04T02:22:48.277Z,-1.98
2023-02-04T02:25:16.590Z,-2.02
2023-02-04T02:27:44.537Z,-2.02
2023-02-04T02:30:17.941Z,-2.03
2023-02-04T02:32:46.772Z,-2.03
2023-02-04T02:35:15.562Z,-1.99
2023-02-04T02:37:43.278Z,-1.95
2023-02-04T02:40:12.591Z,-1.98
2023-02-04T02:42:40.500Z,-1.93
2023-02-04T02:45:20.849Z,-1.95
2023-02-04T02:47:49.776Z,-1.91
2023-02-04T02:50:20.025Z,-1.91
2023-02-04T02:52:47.733Z,-1.91
2023-02-04T02:55:18.778Z,-1.84
2023-02-04T02:57:48.748Z,-1.91
2023-02-04T03:00:24.034Z,-1.88
2023-02-04T03:03:07.717Z,-1.92
2023-02-04T03:05:38.750Z,-1.85
2023-02-04T03:08:07.602Z,-1.91
2023-02-04T03:10:37.228Z,-1.92
2023-02-04T03:13:05.367Z,-1.92
2023-02-04T03:15:33.538Z,-1.86
2023-02-04T03:18:01.338Z,-1.89
2023-02-04T03:20:31.917Z,-1.88
2023-02-04T03:23:00.400Z,-1.88
2023-02-04T03:25:29.202Z,-1.91
2023-02-04T03:27:59.446Z,-1.95
2023-02-04T03:30:28.497Z,-1.94
2023-02-04T03:32:56.172Z,-1.93
2023-02-04T03:35:24.197Z,-1.94
2023-02-04T03:37:52.558Z,-1.97
2023-02-04T03:40:20.827Z,-2.02
2023-02-04T03:42:48.475Z,-2.06
2023-02-04T03:45:16.825Z,-2.12
2023-02-04T03:47:44.489Z,-2.19
2023-02-04T03:50:14.108Z,-2.26
2023-02-04T03:52:41.868Z,-2.32
2023-02-04T03:55:10.250Z,-2.35
2023-02-04T03:57:37.961Z,-2.41
2023-02-04T04:00:06.786Z,-2.43
2023-02-04T04:02:40.378Z,-2.47
2023-02-04T04:05:09.223Z,-2.48
2023-02-04T04:07:36.990Z,-2.49
2023-02-04T04:10:05.403Z,-2.54
2023-02-04T04:12:33.224Z,-2.59
2023-02-04T04:15:01.344Z,-2.57
2023-02-04T04:17:29.106Z,-2.53
2023-02-04T04:19:57.334Z,-2.55
2023-02-04T04:22:25.014Z,-2.55
2023-02-04T04:24:53.110Z,-2.55
2023-02-04T04:27:21.221Z,-2.55
2023-02-04T04:29:49.314Z,-2.59
2023-02-04T04:32:17.008Z,-2.54
2023-02-04T04:34:45.269Z,-2.54
2023-02-04T04:37:13.047Z,-2.50
2023-02-04T04:39:41.631Z,-2.45
2023-02-04T04:42:10.296Z,-2.42
2023-02-04T04:44:38.312Z,-2.34
2023-02-04T04:47:06.078Z,-2.27
2023-02-04T04:49:34.526Z,-2.24
2023-02-04T04:52:02.365Z,-2.18
2023-02-04T04:54:30.967Z,-2.14
2023-02-04T04:56:58.782Z,-2.09
2023-02-04T04:59:26.736Z,-2.06
2023-02-04T05:01:54.265Z,-2.07
2023-02-04T05:04:22.614Z,-2.02
2023-02-04T05:06:50.238Z,-1.97
2023-02-04T05:09:18.270Z,-1.95
2023-02-04T05:11:47.592Z,-1.92
2023-02-04T05:14:15.370Z,-1.91
2023-02-04T05:16:43.204Z,-1.92
2023-02-04T05:19:12.175Z,-1.92
2023-02-04T05:21:39.714Z,-1.89
2023-02-04T05:24:08.015Z,-1.88
2023-02-04T05:26:35.756Z,-1.91
2023-02-04T05:29:03.945Z,-1.93
2023-02-04T05:31:32.042Z,-1.93
2023-02-04T05:34:00.122Z,-1.90
2023-02-04T05:36:28.394Z,-1.95
2023-02-04T05:38:56.334Z,-1.94
2023-02-04T05:41:24.356Z,-2.01
2023-02-04T05:43:52.543Z,-2.04
2023-02-04T05:46:21.400Z,-2.08
2023-02-04T05:48:49.685Z,-2.14
2023-02-04T05:51:17.452Z,-2.14
2023-02-04T05:53:45.612Z,-2.19
2023-02-04T05:56:13.582Z,-2.24
2023-02-04T05:58:41.598Z,-2.25
2023-02-04T06:01:10.182Z,-2.37
2023-02-04T06:03:38.068Z,-2.37
2023-02-04T06:06:05.915Z,-2.50
2023-02-04T06:08:34.187Z,-2.47
2023-02-04T06:11:02.079Z,-2.54
2023-02-04T06:13:30.526Z,-2.58
2023-02-04T06:15:58.314Z,-2.63
2023-02-04T06:18:26.303Z,-2.72
2023-02-04T06:20:53.929Z,-2.85
2023-02-04T06:23:22.388Z,-2.94
2023-02-04T06:25:50.876Z,-2.99
2023-02-04T06:28:19.154Z,-3.08
2023-02-04T06:30:46.816Z,-3.14
2023-02-04T06:33:15.138Z,-3.17
2023-02-04T06:35:42.836Z,-3.26
2023-02-04T06:38:10.870Z,-3.26
2023-02-04T06:40:38.902Z,-3.30
2023-02-04T06:43:07.204Z,-3.38
2023-02-04T06:45:36.004Z,-3.40
2023-02-04T06:48:04.277Z,-3.44
2023-02-04T06:50:32.254Z,-3.43
2023-02-04T06:53:00.687Z,-3.46
2023-02-04T06:55:28.512Z,-3.49
2023-02-04T06:57:57.069Z,-3.51
2023-02-04T07:00:24.772Z,-3.48
2023-02-04T07:02:53.485Z,-3.48
2023-02-04T07:05:21.312Z,-3.50
2023-02-04T07:07:49.721Z,-3.46
2023-02-04T07:10:18.465Z,-3.47
2023-02-04T07:12:47.067Z,-3.48
2023-02-04T07:15:15.035Z,-3.48
2023-02-04T07:17:43.546Z,-3.49
2023-02-04T07:20:12.119Z,-3.47
2023-02-04T07:22:40.388Z,-3.48
2023-02-04T07:25:08.575Z,-3.49
2023-02-04T07:27:36.740Z,-3.47
2023-02-04T07:30:04.915Z,-3.44
2023-02-04T07:32:33.699Z,-3.39
2023-02-04T07:35:01.507Z,-3.37
2023-02-04T07:37:29.843Z,-3.35
2023-02-04T07:39:57.534Z,-3.34
2023-02-04T07:42:25.499Z,-3.32
2023-02-04T07:45:01.281Z,-3.28
2023-02-04T07:47:29.571Z,-3.17
2023-02-04T07:49:57.309Z,-3.15
2023-02-04T07:52:26.045Z,-3.12
2023-02-04T07:54:54.348Z,-3.02
2023-02-04T07:57:22.377Z,-3.04
2023-02-04T07:59:50.732Z,-2.94
2023-02-04T08:02:19.341Z,-2.88
2023-02-04T08:04:47.142Z,-2.79
2023-02-04T08:07:15.885Z,-2.80
2023-02-04T08:09:43.681Z,-2.71
2023-02-04T08:12:12.111Z,-2.71
2023-02-04T08:14:39.856Z,-2.65
2023-02-04T08:17:07.760Z,-2.61
2023-02-04T08:19:35.678Z,-2.61
2023-02-04T08:22:04.251Z,-2.58
2023-02-04T08:24:31.837Z,-2.52
2023-02-04T08:27:00.216Z,-2.53
2023-02-04T08:29:27.975Z,-2.53
2023-02-04T08:31:56.198Z,-2.46
2023-02-04T08:34:24.158Z,-2.40
2023-02-04T08:36:52.116Z,-2.36
2023-02-04T08:39:19.792Z,-2.33
2023-02-04T08:41:49.426Z,-2.24
2023-02-04T08:44:17.850Z,-2.22
2023-02-04T08:46:46.059Z,-2.27
2023-02-04T08:49:14.154Z,-2.12
2023-02-04T08:51:42.891Z,-1.99
2023-02-04T08:54:10.561Z,-1.91
2023-02-04T08:56:38.704Z,-1.91
2023-02-04T08:59:06.379Z,-1.85
2023-02-04T09:01:34.741Z,-1.73
2023-02-04T09:04:03.061Z,-1.47
2023-02-04T09:06:31.184Z,-1.34
2023-02-04T09:08:58.952Z,-1.21
2023-02-04T09:11:27.328Z,-0.91
2023-02-04T09:13:57.075Z,-0.77
2023-02-04T09:16:25.717Z,-0.68
2023-02-04T09:18:53.452Z,-0.38
2023-02-04T09:21:22.142Z,-0.07
2023-02-04T09:23:50.208Z,0.23
2023-02-04T09:26:18.305Z,0.41
2023-02-04T09:28:46.132Z,0.22
2023-02-04T09:31:14.140Z,0.13
2023-02-04T09:33:42.282Z,0.43
2023-02-04T09:36:10.239Z,0.92
2023-02-04T09:38:38.576Z,0.97
2023-02-04T09:41:12.250Z,1.05
2023-02-04T09:43:42.742Z,0.82
2023-02-04T09:46:20.796Z,0.93
2023-02-04T09:48:49.305Z,1.02
2023-02-04T09:51:28.950Z,0.68
2023-02-04T09:54:09.728Z,0.44
2023-02-04T09:56:38.138Z,0.28
2023-02-04T09:59:32.400Z,-0.39
2023-02-04T10:02:02.254Z,-0.90
2023-02-04T10:04:30.281Z,-0.88
2023-02-04T10:07:01.482Z,-0.83
2023-02-04T10:09:29.704Z,-0.94
2023-02-04T10:11:57.927Z,-1.17
2023-02-04T10:14:25.646Z,-1.39
2023-02-04T10:17:00.963Z,-1.22
2023-02-04T10:19:30.139Z,-1.13
2023-02-04T10:21:58.199Z,-1.09
2023-02-04T10:24:27.577Z,-1.16
2023-02-04T10:27:09.049Z,-1.23
2023-02-04T10:29:37.214Z,-1.18
2023-02-04T10:32:05.393Z,-1.17
2023-02-04T10:34:40.141Z,-1.10
2023-02-04T10:37:26.854Z,-1.18
2023-02-04T10:39:55.061Z,-1.43
2023-02-04T10:42:28.688Z,-1.42
2023-02-04T10:44:56.453Z,-1.52
2023-02-04T10:47:26.977Z,-1.52
2023-02-04T10:49:57.583Z,-1.41
2023-02-04T10:52:34.312Z,-1.41
2023-02-04T10:55:04.070Z,-1.36
2023-02-04T10:57:33.614Z,-1.31
2023-02-04T11:00:04.225Z,-1.48
2023-02-04T11:02:43.797Z,-1.49
2023-02-04T11:05:23.823Z,-1.51
2023-02-04T11:07:51.842Z,-1.46
2023-02-04T11:10:25.201Z,-1.38
2023-02-04T11:12:53.610Z,-1.32
2023-02-04T11:15:49.271Z,-1.36
2023-02-04T11:18:21.513Z,-1.40
2023-02-04T11:20:51.029Z,-1.30
2023-02-04T11:23:33.665Z,-1.25
2023-02-04T11:26:19.203Z,-1.30
2023-02-04T11:28:59.130Z,-1.41
2023-02-04T11:31:49.493Z,-1.28
2023-02-04T11:34:22.028Z,-1.23
2023-02-04T11:37:02.421Z,-1.41
2023-02-04T11:39:36.329Z,-1.47
2023-02-04T11:42:06.007Z,-1.54
2023-02-04T11:44:34.496Z,-1.62
2023-02-04T11:47:03.238Z,-1.65
2023-02-04T11:49:31.841Z,-1.49
2023-02-04T11:52:14.268Z,-1.34
2023-02-04T11:54:42.478Z,-1.31
2023-02-04T11:57:12.630Z,-1.25
2023-02-04T11:59:40.851Z,-1.20
2023-02-04T12:02:42.766Z,-1.22
2023-02-04T12:05:14.339Z,-1.26
2023-02-04T12:07:43.044Z,-1.30
2023-02-04T12:10:13.679Z,-1.34
2023-02-04T12:12:45.026Z,-1.27
2023-02-04T12:15:24.483Z,-1.28
2023-02-04T12:18:21.052Z,-1.34
2023-02-04T12:20:49.364Z,-1.33
2023-02-04T12:23:17.171Z,-1.32
2023-02-04T12:25:44.958Z,-1.37
2023-02-04T12:28:12.914Z,-1.34
2023-02-04T12:30:41.295Z,-1.35
2023-02-04T12:33:09.101Z,-1.30
2023-02-04T12:35:37.574Z,-1.41
2023-02-04T12:38:05.500Z,-1.39
2023-02-04T12:40:33.946Z,-1.33
2023-02-04T12:43:01.749Z,-1.26
2023-02-04T12:45:30.174Z,-1.42
2023-02-04T12:47:58.245Z,-1.37
2023-02-04T12:50:27.109Z,-1.40
2023-02-04T12:52:58.771Z,-1.42
2023-02-04T12:55:28.387Z,-1.42
2023-02-04T12:57:56.948Z,-1.55
2023-02-04T13:00:27.717Z,-1.67
2023-02-04T13:02:55.535Z,-1.67
2023-02-04T13:05:23.753Z,-1.74
2023-02-04T13:07:51.352Z,-1.89
2023-02-04T13:10:20.215Z,-1.96
2023-02-04T13:12:47.887Z,-2.03
2023-02-04T13:15:15.365Z,-2.04
2023-02-04T13:17:43.203Z,-2.09
2023-02-04T13:20:11.311Z,-2.15
2023-02-04T13:22:38.836Z,-2.16
2023-02-04T13:25:07.047Z,-2.18
2023-02-04T13:27:34.558Z,-2.15
2023-02-04T13:30:02.174Z,-2.13
2023-02-04T13:32:29.621Z,-2.18
2023-02-04T13:34:57.312Z,-2.12
2023-02-04T13:37:25.273Z,-2.10
2023-02-04T13:39:52.916Z,-2.02
2023-02-04T13:42:20.306Z,-1.96
2023-02-04T13:44:47.846Z,-2.01
2023-02-04T13:47:15.092Z,-2.08
2023-02-04T13:49:42.725Z,-2.03
2023-02-04T13:52:10.015Z,-2.06
2023-02-04T13:54:37.585Z,-2.10
2023-02-04T13:57:05.776Z,-2.13
2023-02-04T13:59:33.700Z,-2.16
2023-02-04T14:02:01.100Z,-2.16
2023-02-04T14:04:28.910Z,-2.14
2023-02-04T14:06:56.649Z,-2.14
2023-02-04T14:09:25.622Z,-2.10
2023-02-04T14:11:52.886Z,-2.13
2023-02-04T14:14:20.481Z,-2.14
2023-02-04T14:16:47.736Z,-2.28
2023-02-04T14:19:15.531Z,-2.18
2023-02-04T14:21:42.819Z,-2.20
2023-02-04T14:24:10.377Z,-2.19
2023-02-04T14:26:37.710Z,-2.15
2023-02-04T14:29:07.219Z,-2.15
2023-02-04T14:31:36.725Z,-2.18
2023-02-04T14:34:04.767Z,-2.21
2023-02-04T14:36:32.049Z,-2.28
2023-02-04T14:39:00.821Z,-2.28
2023-02-04T14:41:30.375Z,-2.28
2023-02-04T14:43:58.198Z,-2.31
2023-02-04T14:46:25.625Z,-2.34
2023-02-04T14:48:54.755Z,-2.41
2023-02-04T14:51:22.182Z,-2.47
2023-02-04T14:53:49.739Z,-2.55
2023-02-04T14:56:17.247Z,-2.60
2023-02-04T14:58:44.767Z,-2.66
2023-02-04T15:01:12.083Z,-2.70
2023-02-04T15:03:39.673Z,-2.76
2023-02-04T15:06:07.175Z,-2.79
2023-02-04T15:08:35.686Z,-2.84
2023-02-04T15:11:03.089Z,-2.93
2023-02-04T15:13:30.858Z,-2.97
2023-02-04T15:15:58.013Z,-3.05
2023-02-04T15:18:25.935Z,-3.00
2023-02-04T15:20:53.088Z,-3.04
2023-02-04T15:23:20.736Z,-3.08
2023-02-04T15:25:48.453Z,-3.20
2023-02-04T15:28:16.169Z,-3.24
2023-02-04T15:30:43.465Z,-3.28
2023-02-04T15:33:13.216Z,-3.28
2023-02-04T15:35:40.692Z,-3.36
2023-02-04T15:38:08.009Z,-3.39
2023-02-04T15:40:35.514Z,-3.46
2023-02-04T15:43:03.376Z,-3.46
2023-02-04T15:45:30.722Z,-3.49
2023-02-04T15:47:58.341Z,-3.55
2023-02-04T15:50:25.559Z,-3.53
2023-02-04T15:52:54.226Z,-3.52
2023-02-04T15:55:21.520Z,-3.54
2023-02-04T15:57:49.199Z,-3.62
2023-02-04T16:00:16.772Z,-3.60
2023-02-04T16:02:44.440Z,-3.61
2023-02-04T16:05:11.813Z,-3.66
2023-02-04T16:07:39.448Z,-3.69
2023-02-04T16:10:06.796Z,-3.70
2023-02-04T16:12:34.442Z,-3.71
2023-02-04T16:15:01.833Z,-3.71
2023-02-04T16:17:29.611Z,-3.75
2023-02-04T16:19:58.238Z,-3.78
2023-02-04T16:22:25.826Z,-3.75
2023-02-04T16:24:53.331Z,-3.77
2023-02-04T16:27:21.021Z,-3.84
2023-02-04T16:29:48.761Z,-3.89
2023-02-04T16:32:16.450Z,-3.98
2023-02-04T16:34:43.809Z,-3.98
2023-02-04T16:37:11.460Z,-4.03
2023-02-04T16:39:44.784Z,-4.10
2023-02-04T16:42:12.837Z,-4.12
2023-02-04T16:44:40.140Z,-4.19
2023-02-04T16:47:08.665Z,-4.16
2023-02-04T16:49:36.505Z,-4.12
2023-02-04T16:52:05.273Z,-4.12
2023-02-04T16:54:33.380Z,-4.13
2023-02-04T16:57:01.662Z,-4.14
2023-02-04T16:59:29.131Z,-4.19
2023-02-04T17:01:57.932Z,-4.11
2023-02-04T17:04:25.614Z,-4.13
2023-02-04T17:06:53.751Z,-4.15
2023-02-04T17:09:21.064Z,-4.12
2023-02-04T17:11:48.801Z,-4.09
2023-02-04T17:14:16.193Z,-4.07
2023-02-04T17:16:44.738Z,-4.04
2023-02-04T17:19:13.046Z,-4.05
2023-02-04T17:21:41.008Z,-4.05
2023-02-04T17:24:08.579Z,-4.03
2023-02-04T17:26:38.115Z,-4.04
2023-02-04T17:29:13.794Z,-4.06
2023-02-04T17:31:44.396Z,-4.10
2023-02-04T17:34:11.885Z,-4.13
2023-02-04T17:36:39.544Z,-4.17
2023-02-04T17:39:07.756Z,-4.16
2023-02-04T17:41:35.401Z,-4.23
2023-02-04T17:44:03.708Z,-4.20
2023-02-04T17:46:31.715Z,-4.29
2023-02-04T17:48:59.120Z,-4.42
2023-02-04T17:51:26.711Z,-4.39
2023-02-04T17:53:54.060Z,-4.41
2023-02-04T17:56:21.813Z,-4.44
2023-02-04T17:58:49.679Z,-4.50
2023-02-04T18:01:19.419Z,-4.53
2023-02-04T18:03:47.167Z,-4.55
2023-02-04T18:06:22.538Z,-4.58
2023-02-04T18:08:51.478Z,-4.58
2023-02-04T18:11:22.269Z,-4.59
2023-02-04T18:13:50.302Z,-4.60
2023-02-04T18:16:32.321Z,-4.61
2023-02-04T18:19:22.793Z,-4.66
2023-02-04T18:21:51.345Z,-4.63
2023-02-04T18:24:27.398Z,-4.68
2023-02-04T18:26:56.913Z,-4.65
2023-02-04T18:29:27.256Z,-4.66
2023-02-04T18:32:01.271Z,-4.68
2023-02-04T18:34:35.880Z,-4.65
2023-02-04T18:37:41.008Z,-4.60
2023-02-04T18:40:11.883Z,-4.65
2023-02-04T18:42:42.180Z,-4.62
2023-02-04T18:45:30.583Z,-4.68
2023-02-04T18:48:01.427Z,-4.69
2023-02-04T18:50:32.650Z,-4.69
2023-02-04T18:53:02.035Z,-4.70
2023-02-04T18:55:36.629Z,-4.69
2023-02-04T18:58:17.192Z,-4.67
2023-02-04T19:00:49.278Z,-4.63
2023-02-04T19:03:42.225Z,-4.59
2023-02-04T19:06:30.443Z,-4.56
2023-02-04T19:09:23.298Z,-4.53
2023-02-04T19:11:58.056Z,-4.54
2023-02-04T19:14:44.962Z,-4.48
2023-02-04T19:17:32.302Z,-4.41
2023-02-04T19:20:00.909Z,-4.43
2023-02-04T19:22:49.781Z,-4.39
2023-02-04T19:25:37.230Z,-4.39
2023-02-04T19:28:32.929Z,-4.42
2023-02-04T19:31:05.628Z,-4.42
2023-02-04T19:33:43.109Z,-4.39
2023-02-04T19:36:33.946Z,-4.41
2023-02-04T19:39:21.165Z,-4.41
2023-02-04T19:41:50.956Z,-4.42
2023-02-04T19:44:29.847Z,-4.45
2023-02-04T19:46:58.167Z,-4.47
2023-02-04T19:49:29.428Z,-4.48
2023-02-04T19:51:58.422Z,-4.45
2023-02-04T19:54:36.227Z,-4.48
2023-02-04T19:57:26.135Z,-4.50
2023-02-04T19:59:56.268Z,-4.50
2023-02-04T20:02:38.500Z,-4.50
2023-02-04T20:05:17.549Z,-4.55
2023-02-04T20:07:45.389Z,-4.50
2023-02-04T20:10:35.635Z,-4.52
2023-02-04T20:13:13.330Z,-4.55
2023-02-04T20:15:40.982Z,-4.61
2023-02-04T20:18:20.136Z,-4.58
2023-02-04T20:20:47.611Z,-4.63
2023-02-04T20:23:34.010Z,-4.64
2023-02-04T20:26:01.809Z,-4.66
2023-02-04T20:28:43.349Z,-4.70
2023-02-04T20:31:39.314Z,-4.69
2023-02-04T20:34:17.625Z,-4.66
2023-02-04T20:36:46.900Z,-4.68
2023-02-04T20:39:35.746Z,-4.69
2023-02-04T20:42:21.311Z,-4.70
2023-02-04T20:44:49.417Z,-4.71
2023-02-04T20:47:19.671Z,-4.69
2023-02-04T20:49:54.271Z,-4.64
2023-02-04T20:52:40.162Z,-4.65
2023-02-04T20:55:30.815Z,-4.67
2023-02-04T20:58:23.035Z,-4.68
2023-02-04T21:00:54.164Z,-4.72
2023-02-04T21:03:28.939Z,-4.73
2023-02-04T21:05:58.976Z,-4.77
2023-02-04T21:08:35.777Z,-4.80
2023-02-04T21:11:04.600Z,-4.81
2023-02-04T21:13:32.478Z,-4.86
2023-02-04T21:16:00.959Z,-4.92
2023-02-04T21:18:30.063Z,-5.01
2023-02-04T21:20:58.239Z,-5.04
2023-02-04T21:23:25.738Z,-5.14
2023-02-04T21:25:53.748Z,-5.16
2023-02-04T21:28:21.163Z,-5.26
2023-02-04T21:30:48.939Z,-5.35
2023-02-04T21:33:17.218Z,-5.44
2023-02-04T21:35:45.131Z,-5.46
2023-02-04T21:38:12.549Z,-5.48
2023-02-04T21:40:40.805Z,-5.54
2023-02-04T21:43:08.593Z,-5.60
2023-02-04T21:45:38.140Z,-5.61
2023-02-04T21:48:06.394Z,-5.69
2023-02-04T21:50:35.458Z,-5.78
2023-02-04T21:53:02.782Z,-5.88
2023-02-04T21:55:31.002Z,-5.93
2023-02-04T21:57:58.686Z,-5.97
2023-02-04T22:00:27.646Z,-6.04
2023-02-04T22:02:55.605Z,-6.05
2023-02-04T22:05:24.233Z,-6.11
2023-02-04T22:07:52.033Z,-6.12
2023-02-04T22:10:22.971Z,-6.12
2023-02-04T22:12:50.573Z,-6.19
2023-02-04T22:15:18.867Z,-6.31
2023-02-04T22:17:46.829Z,-6.34
2023-02-04T22:20:17.909Z,-6.37
2023-02-04T22:22:46.504Z,-6.39
2023-02-04T22:25:16.127Z,-6.45
2023-02-04T22:27:43.996Z,-6.48
2023-02-04T22:30:12.843Z,-6.53
2023-02-04T22:32:41.242Z,-6.56
2023-02-04T22:35:10.539Z,-6.54
2023-02-04T22:37:42.234Z,-6.58
2023-02-04T22:40:12.305Z,-6.64
2023-02-04T22:42:40.299Z,-6.65
2023-02-04T22:45:10.518Z,-6.71
2023-02-04T22:47:38.921Z,-6.72
2023-02-04T22:50:06.820Z,-6.75
2023-02-04T22:52:35.006Z,-6.78
2023-02-04T22:55:02.880Z,-6.86
2023-02-04T22:57:30.819Z,-6.91
2023-02-04T22:59:58.422Z,-6.93
2023-02-04T23:02:26.282Z,-6.95
2023-02-04T23:04:53.848Z,-6.95
2023-02-04T23:07:21.591Z,-6.93
2023-02-04T23:09:48.940Z,-6.98
2023-02-04T23:12:16.814Z,-7.01
2023-02-04T23:14:46.557Z,-7.01
2023-02-04T23:17:15.358Z,-7.03
2023-02-04T23:19:43.149Z,-7.00
2023-02-04T23:22:12.850Z,-6.99
2023-02-04T23:24:41.087Z,-7.00
2023-02-04T23:27:11.401Z,-6.94
2023-02-04T23:29:39.811Z,-6.83
2023-02-04T23:32:08.052Z,-6.77
2023-02-04T23:34:35.957Z,-6.70
2023-02-04T23:37:03.926Z,-6.65
2023-02-04T23:39:32.808Z,-6.59
2023-02-04T23:42:00.720Z,-6.56
2023-02-04T23:44:28.441Z,-6.52
2023-02-04T23:46:56.416Z,-6.48
2023-02-04T23:49:23.813Z,-6.42
2023-02-04T23:51:51.750Z,-6.34
2023-02-04T23:54:19.487Z,-6.36
2023-02-04T23:56:47.336Z,-6.28
2023-02-04T23:59:15.069Z,-6.26
